sensor_id;sensor_type;location;lat;lon;timestamp;P1;durP1;ratioP1;P2;durP2;ratioP2
48526;SDS011;34317;51.660;5.824;2022-10-30T00:00:44;18.33;;;8.63;;
48526;SDS011;34317;51.660;5.824;2022-10-30T00:03:11;13.25;;;8.65;;
48526;SDS011;34317;51.660;5.824;2022-10-30T00:05:41;19.92;;;8.77;;
48526;SDS011;34317;51.660;5.824;2022-10-30T00:08:10;16.38;;;8.35;;
48526;SDS011;34317;51.660;5.824;2022-10-30T00:10:39;19.92;;;8.75;;
48526;SDS011;34317;51.660;5.824;2022-10-30T00:13:07;22.55;;;8.70;;
48526;SDS011;34317;51.660;5.824;2022-10-30T00:15:34;13.68;;;8.25;;
48526;SDS011;34317;51.660;5.824;2022-10-30T00:18:01;13.93;;;8.57;;
48526;SDS011;34317;51.660;5.824;2022-10-30T00:20:29;17.17;;;9.20;;
48526;SDS011;34317;51.660;5.824;2022-10-30T00:22:56;16.65;;;8.55;;
48526;SDS011;34317;51.660;5.824;2022-10-30T00:25:23;16.45;;;8.30;;
48526;SDS011;34317;51.660;5.824;2022-10-30T00:27:50;17.45;;;8.40;;
48526;SDS011;34317;51.660;5.824;2022-10-30T00:30:17;18.88;;;8.70;;
48526;SDS011;34317;51.660;5.824;2022-10-30T00:32:45;14.90;;;8.35;;
48526;SDS011;34317;51.660;5.824;2022-10-30T00:35:12;18.05;;;9.07;;
48526;SDS011;34317;51.660;5.824;2022-10-30T00:37:39;17.75;;;9.38;;
48526;SDS011;34317;51.660;5.824;2022-10-30T00:40:06;14.48;;;8.63;;
48526;SDS011;34317;51.660;5.824;2022-10-30T00:42:39;19.42;;;8.45;;
48526;SDS011;34317;51.660;5.824;2022-10-30T00:45:08;14.05;;;8.77;;
48526;SDS011;34317;51.660;5.824;2022-10-30T00:47:38;15.98;;;8.70;;
48526;SDS011;34317;51.660;5.824;2022-10-30T00:50:29;16.85;;;8.68;;
48526;SDS011;34317;51.660;5.824;2022-10-30T00:53:08;16.65;;;8.38;;
48526;SDS011;34317;51.660;5.824;2022-10-30T00:55:46;17.10;;;8.63;;
48526;SDS011;34317;51.660;5.824;2022-10-30T00:58:18;16.35;;;8.68;;
48526;SDS011;34317;51.660;5.824;2022-10-30T01:00:50;14.90;;;8.10;;
48526;SDS011;34317;51.660;5.824;2022-10-30T01:03:20;15.68;;;8.40;;
48526;SDS011;34317;51.660;5.824;2022-10-30T01:05:50;18.17;;;8.77;;
48526;SDS011;34317;51.660;5.824;2022-10-30T01:08:21;17.30;;;8.60;;
48526;SDS011;34317;51.660;5.824;2022-10-30T01:10:48;20.58;;;9.00;;
48526;SDS011;34317;51.660;5.824;2022-10-30T01:13:16;17.88;;;8.80;;
48526;SDS011;34317;51.660;5.824;2022-10-30T01:15:57;17.85;;;8.65;;
48526;SDS011;34317;51.660;5.824;2022-10-30T01:18:57;17.85;;;8.50;;
48526;SDS011;34317;51.660;5.824;2022-10-30T01:21:43;15.57;;;9.07;;
48526;SDS011;34317;51.660;5.824;2022-10-30T01:27:11;11.95;;;7.97;;
48526;SDS011;34317;51.660;5.824;2022-10-30T01:35:09;18.02;;;9.25;;
48526;SDS011;34317;51.660;5.824;2022-10-30T01:37:49;18.23;;;8.55;;
48526;SDS011;34317;51.660;5.824;2022-10-30T01:40:23;15.75;;;8.63;;
48526;SDS011;34317;51.660;5.824;2022-10-30T01:42:55;17.35;;;8.80;;
48526;SDS011;34317;51.660;5.824;2022-10-30T01:45:33;17.95;;;8.57;;
48526;SDS011;34317;51.660;5.824;2022-10-30T01:51:11;13.13;;;9.30;;
48526;SDS011;34317;51.660;5.824;2022-10-30T01:56:39;17.70;;;8.07;;
48526;SDS011;34317;51.660;5.824;2022-10-30T01:59:12;15.55;;;8.90;;
48526;SDS011;34317;51.660;5.824;2022-10-30T02:01:44;18.02;;;8.77;;
48526;SDS011;34317;51.660;5.824;2022-10-30T02:04:12;19.63;;;9.32;;
48526;SDS011;34317;51.660;5.824;2022-10-30T02:06:39;19.77;;;9.07;;
48526;SDS011;34317;51.660;5.824;2022-10-30T02:09:08;19.92;;;9.68;;
48526;SDS011;34317;51.660;5.824;2022-10-30T02:11:40;20.75;;;9.25;;
48526;SDS011;34317;51.660;5.824;2022-10-30T02:14:08;15.60;;;9.85;;
48526;SDS011;34317;51.660;5.824;2022-10-30T02:16:38;13.70;;;8.80;;
48526;SDS011;34317;51.660;5.824;2022-10-30T02:19:10;18.42;;;8.88;;
48526;SDS011;34317;51.660;5.824;2022-10-30T02:21:37;16.55;;;9.27;;
48526;SDS011;34317;51.660;5.824;2022-10-30T02:24:04;17.85;;;9.63;;
48526;SDS011;34317;51.660;5.824;2022-10-30T02:26:32;19.08;;;8.93;;
48526;SDS011;34317;51.660;5.824;2022-10-30T02:29:00;17.75;;;9.10;;
48526;SDS011;34317;51.660;5.824;2022-10-30T02:31:27;14.18;;;8.32;;
48526;SDS011;34317;51.660;5.824;2022-10-30T02:33:55;16.63;;;8.88;;
48526;SDS011;34317;51.660;5.824;2022-10-30T02:36:22;15.35;;;8.48;;
48526;SDS011;34317;51.660;5.824;2022-10-30T02:38:49;16.98;;;8.88;;
48526;SDS011;34317;51.660;5.824;2022-10-30T02:41:16;18.48;;;8.68;;
48526;SDS011;34317;51.660;5.824;2022-10-30T02:43:43;22.00;;;8.90;;
48526;SDS011;34317;51.660;5.824;2022-10-30T02:46:10;15.65;;;8.27;;
48526;SDS011;34317;51.660;5.824;2022-10-30T02:48:37;14.00;;;8.45;;
48526;SDS011;34317;51.660;5.824;2022-10-30T02:51:04;17.60;;;8.73;;
48526;SDS011;34317;51.660;5.824;2022-10-30T02:53:32;17.70;;;8.40;;
48526;SDS011;34317;51.660;5.824;2022-10-30T02:56:03;18.92;;;8.85;;
48526;SDS011;34317;51.660;5.824;2022-10-30T02:58:31;20.58;;;8.70;;
48526;SDS011;34317;51.660;5.824;2022-10-30T03:01:08;17.58;;;9.32;;
48526;SDS011;34317;51.660;5.824;2022-10-30T03:03:38;13.85;;;8.38;;
48526;SDS011;34317;51.660;5.824;2022-10-30T03:06:06;18.40;;;8.63;;
48526;SDS011;34317;51.660;5.824;2022-10-30T03:08:34;15.38;;;9.07;;
48526;SDS011;34317;51.660;5.824;2022-10-30T03:11:05;17.98;;;9.45;;
48526;SDS011;34317;51.660;5.824;2022-10-30T03:13:35;16.48;;;8.80;;
48526;SDS011;34317;51.660;5.824;2022-10-30T03:16:04;18.02;;;8.88;;
48526;SDS011;34317;51.660;5.824;2022-10-30T03:18:39;17.50;;;8.55;;
48526;SDS011;34317;51.660;5.824;2022-10-30T03:21:10;18.17;;;8.40;;
48526;SDS011;34317;51.660;5.824;2022-10-30T03:23:39;19.05;;;9.07;;
48526;SDS011;34317;51.660;5.824;2022-10-30T03:26:06;18.77;;;8.57;;
48526;SDS011;34317;51.660;5.824;2022-10-30T03:28:45;18.08;;;8.45;;
48526;SDS011;34317;51.660;5.824;2022-10-30T03:31:14;18.98;;;8.82;;
48526;SDS011;34317;51.660;5.824;2022-10-30T03:33:43;18.08;;;8.13;;
48526;SDS011;34317;51.660;5.824;2022-10-30T03:36:12;16.25;;;8.02;;
48526;SDS011;34317;51.660;5.824;2022-10-30T03:38:40;17.13;;;8.05;;
48526;SDS011;34317;51.660;5.824;2022-10-30T03:41:09;16.33;;;8.50;;
48526;SDS011;34317;51.660;5.824;2022-10-30T03:43:36;16.45;;;8.70;;
48526;SDS011;34317;51.660;5.824;2022-10-30T03:46:03;14.57;;;8.45;;
48526;SDS011;34317;51.660;5.824;2022-10-30T03:48:32;18.13;;;9.25;;
48526;SDS011;34317;51.660;5.824;2022-10-30T03:51:00;19.30;;;8.95;;
48526;SDS011;34317;51.660;5.824;2022-10-30T03:53:27;15.70;;;8.60;;
48526;SDS011;34317;51.660;5.824;2022-10-30T03:55:59;15.38;;;8.55;;
48526;SDS011;34317;51.660;5.824;2022-10-30T03:58:36;17.45;;;8.38;;
48526;SDS011;34317;51.660;5.824;2022-10-30T04:01:07;14.93;;;8.63;;
48526;SDS011;34317;51.660;5.824;2022-10-30T04:03:38;13.90;;;8.43;;
48526;SDS011;34317;51.660;5.824;2022-10-30T04:06:08;15.65;;;8.27;;
48526;SDS011;34317;51.660;5.824;2022-10-30T04:08:35;14.75;;;8.18;;
48526;SDS011;34317;51.660;5.824;2022-10-30T04:11:03;16.60;;;8.57;;
48526;SDS011;34317;51.660;5.824;2022-10-30T04:13:31;15.88;;;8.10;;
48526;SDS011;34317;51.660;5.824;2022-10-30T04:15:58;13.90;;;8.15;;
48526;SDS011;34317;51.660;5.824;2022-10-30T04:18:25;17.38;;;8.43;;
48526;SDS011;34317;51.660;5.824;2022-10-30T04:20:53;18.48;;;8.27;;
48526;SDS011;34317;51.660;5.824;2022-10-30T04:23:21;14.52;;;7.93;;
48526;SDS011;34317;51.660;5.824;2022-10-30T04:25:48;15.43;;;8.38;;
48526;SDS011;34317;51.660;5.824;2022-10-30T04:28:16;14.32;;;8.05;;
48526;SDS011;34317;51.660;5.824;2022-10-30T04:30:44;15.30;;;8.52;;
48526;SDS011;34317;51.660;5.824;2022-10-30T04:33:14;18.05;;;8.68;;
48526;SDS011;34317;51.660;5.824;2022-10-30T04:35:41;19.27;;;9.00;;
48526;SDS011;34317;51.660;5.824;2022-10-30T04:38:15;16.02;;;8.60;;
48526;SDS011;34317;51.660;5.824;2022-10-30T04:40:45;18.48;;;8.90;;
48526;SDS011;34317;51.660;5.824;2022-10-30T04:43:13;14.85;;;8.57;;
48526;SDS011;34317;51.660;5.824;2022-10-30T04:45:41;15.82;;;8.60;;
48526;SDS011;34317;51.660;5.824;2022-10-30T04:48:12;16.00;;;8.75;;
48526;SDS011;34317;51.660;5.824;2022-10-30T04:50:42;15.52;;;9.02;;
48526;SDS011;34317;51.660;5.824;2022-10-30T04:53:16;17.80;;;9.00;;
48526;SDS011;34317;51.660;5.824;2022-10-30T04:55:47;20.77;;;8.77;;
48526;SDS011;34317;51.660;5.824;2022-10-30T04:58:19;18.17;;;8.27;;
48526;SDS011;34317;51.660;5.824;2022-10-30T05:00:52;12.55;;;7.82;;
48526;SDS011;34317;51.660;5.824;2022-10-30T05:03:26;15.02;;;7.82;;
48526;SDS011;34317;51.660;5.824;2022-10-30T05:05:57;11.93;;;7.90;;
48526;SDS011;34317;51.660;5.824;2022-10-30T05:08:28;15.65;;;7.85;;
48526;SDS011;34317;51.660;5.824;2022-10-30T05:10:58;13.93;;;8.07;;
48526;SDS011;34317;51.660;5.824;2022-10-30T05:13:29;16.60;;;8.27;;
48526;SDS011;34317;51.660;5.824;2022-10-30T05:15:56;17.40;;;9.20;;
48526;SDS011;34317;51.660;5.824;2022-10-30T05:18:23;22.15;;;9.88;;
48526;SDS011;34317;51.660;5.824;2022-10-30T05:20:51;16.70;;;8.63;;
48526;SDS011;34317;51.660;5.824;2022-10-30T05:23:18;15.77;;;8.43;;
48526;SDS011;34317;51.660;5.824;2022-10-30T05:25:45;18.13;;;8.60;;
48526;SDS011;34317;51.660;5.824;2022-10-30T05:28:14;16.80;;;8.55;;
48526;SDS011;34317;51.660;5.824;2022-10-30T05:30:51;17.27;;;8.75;;
48526;SDS011;34317;51.660;5.824;2022-10-30T05:33:36;17.73;;;8.80;;
48526;SDS011;34317;51.660;5.824;2022-10-30T05:36:04;18.88;;;8.85;;
48526;SDS011;34317;51.660;5.824;2022-10-30T05:38:31;19.65;;;8.75;;
48526;SDS011;34317;51.660;5.824;2022-10-30T05:40:59;15.82;;;9.10;;
48526;SDS011;34317;51.660;5.824;2022-10-30T05:43:26;13.98;;;7.57;;
48526;SDS011;34317;51.660;5.824;2022-10-30T05:45:53;14.43;;;8.65;;
48526;SDS011;34317;51.660;5.824;2022-10-30T05:48:20;15.35;;;8.52;;
48526;SDS011;34317;51.660;5.824;2022-10-30T05:50:47;17.38;;;8.20;;
48526;SDS011;34317;51.660;5.824;2022-10-30T05:53:26;14.65;;;8.55;;
48526;SDS011;34317;51.660;5.824;2022-10-30T05:55:55;15.13;;;8.18;;
48526;SDS011;34317;51.660;5.824;2022-10-30T05:58:24;14.80;;;7.95;;
48526;SDS011;34317;51.660;5.824;2022-10-30T06:00:54;13.52;;;7.88;;
48526;SDS011;34317;51.660;5.824;2022-10-30T06:03:35;16.58;;;8.65;;
48526;SDS011;34317;51.660;5.824;2022-10-30T06:06:02;18.75;;;8.75;;
48526;SDS011;34317;51.660;5.824;2022-10-30T06:08:30;17.48;;;8.10;;
48526;SDS011;34317;51.660;5.824;2022-10-30T06:11:00;17.27;;;8.45;;
48526;SDS011;34317;51.660;5.824;2022-10-30T06:13:36;16.27;;;8.32;;
48526;SDS011;34317;51.660;5.824;2022-10-30T06:16:09;19.13;;;8.43;;
48526;SDS011;34317;51.660;5.824;2022-10-30T06:18:55;13.70;;;8.25;;
48526;SDS011;34317;51.660;5.824;2022-10-30T06:21:23;13.85;;;8.15;;
48526;SDS011;34317;51.660;5.824;2022-10-30T06:24:10;20.80;;;7.88;;
48526;SDS011;34317;51.660;5.824;2022-10-30T06:26:47;15.23;;;8.27;;
48526;SDS011;34317;51.660;5.824;2022-10-30T06:29:15;18.58;;;9.00;;
48526;SDS011;34317;51.660;5.824;2022-10-30T06:31:42;17.85;;;8.43;;
48526;SDS011;34317;51.660;5.824;2022-10-30T06:34:11;14.40;;;7.95;;
48526;SDS011;34317;51.660;5.824;2022-10-30T06:36:40;15.90;;;9.25;;
48526;SDS011;34317;51.660;5.824;2022-10-30T06:39:07;13.52;;;8.50;;
48526;SDS011;34317;51.660;5.824;2022-10-30T06:41:42;19.98;;;9.32;;
48526;SDS011;34317;51.660;5.824;2022-10-30T06:44:41;16.30;;;9.73;;
48526;SDS011;34317;51.660;5.824;2022-10-30T06:47:08;18.00;;;8.93;;
48526;SDS011;34317;51.660;5.824;2022-10-30T06:49:35;18.63;;;9.00;;
48526;SDS011;34317;51.660;5.824;2022-10-30T06:52:02;15.95;;;8.70;;
48526;SDS011;34317;51.660;5.824;2022-10-30T06:54:29;14.88;;;7.80;;
48526;SDS011;34317;51.660;5.824;2022-10-30T06:57:18;16.25;;;8.70;;
48526;SDS011;34317;51.660;5.824;2022-10-30T07:00:02;16.73;;;8.82;;
48526;SDS011;34317;51.660;5.824;2022-10-30T07:02:57;14.45;;;9.02;;
48526;SDS011;34317;51.660;5.824;2022-10-30T07:05:27;14.25;;;8.18;;
48526;SDS011;34317;51.660;5.824;2022-10-30T07:07:55;22.10;;;11.05;;
48526;SDS011;34317;51.660;5.824;2022-10-30T07:10:23;20.58;;;11.18;;
48526;SDS011;34317;51.660;5.824;2022-10-30T07:13:14;20.10;;;10.57;;
48526;SDS011;34317;51.660;5.824;2022-10-30T07:15:47;21.83;;;11.45;;
48526;SDS011;34317;51.660;5.824;2022-10-30T07:18:25;20.25;;;10.93;;
48526;SDS011;34317;51.660;5.824;2022-10-30T07:20:56;19.23;;;12.40;;
48526;SDS011;34317;51.660;5.824;2022-10-30T07:23:24;21.50;;;11.77;;
48526;SDS011;34317;51.660;5.824;2022-10-30T07:25:55;24.60;;;11.95;;
48526;SDS011;34317;51.660;5.824;2022-10-30T07:28:34;18.40;;;11.95;;
48526;SDS011;34317;51.660;5.824;2022-10-30T07:31:22;23.00;;;13.13;;
48526;SDS011;34317;51.660;5.824;2022-10-30T07:34:28;22.42;;;13.20;;
48526;SDS011;34317;51.660;5.824;2022-10-30T07:37:14;21.48;;;12.93;;
48526;SDS011;34317;51.660;5.824;2022-10-30T07:39:51;23.98;;;13.43;;
48526;SDS011;34317;51.660;5.824;2022-10-30T07:42:25;21.05;;;12.85;;
48526;SDS011;34317;51.660;5.824;2022-10-30T07:45:21;23.33;;;12.82;;
48526;SDS011;34317;51.660;5.824;2022-10-30T07:50:52;27.40;;;12.57;;
48526;SDS011;34317;51.660;5.824;2022-10-30T07:53:19;20.67;;;12.52;;
48526;SDS011;34317;51.660;5.824;2022-10-30T07:55:47;22.35;;;13.02;;
48526;SDS011;34317;51.660;5.824;2022-10-30T07:58:33;22.13;;;13.75;;
48526;SDS011;34317;51.660;5.824;2022-10-30T08:01:18;24.23;;;13.18;;
48526;SDS011;34317;51.660;5.824;2022-10-30T08:03:45;26.63;;;12.18;;
48526;SDS011;34317;51.660;5.824;2022-10-30T08:06:22;21.63;;;12.70;;
48526;SDS011;34317;51.660;5.824;2022-10-30T08:08:53;22.20;;;14.50;;
48526;SDS011;34317;51.660;5.824;2022-10-30T08:11:29;25.05;;;14.43;;
48526;SDS011;34317;51.660;5.824;2022-10-30T08:13:58;23.38;;;14.23;;
48526;SDS011;34317;51.660;5.824;2022-10-30T08:16:25;22.17;;;14.85;;
48526;SDS011;34317;51.660;5.824;2022-10-30T08:18:52;24.38;;;14.43;;
48526;SDS011;34317;51.660;5.824;2022-10-30T08:21:23;23.50;;;14.57;;
48526;SDS011;34317;51.660;5.824;2022-10-30T08:24:16;27.08;;;15.85;;
48526;SDS011;34317;51.660;5.824;2022-10-30T08:26:46;26.52;;;14.82;;
48526;SDS011;34317;51.660;5.824;2022-10-30T08:29:13;24.98;;;15.68;;
48526;SDS011;34317;51.660;5.824;2022-10-30T08:31:42;25.85;;;16.73;;
48526;SDS011;34317;51.660;5.824;2022-10-30T08:34:29;28.65;;;17.73;;
48526;SDS011;34317;51.660;5.824;2022-10-30T08:37:02;28.60;;;16.65;;
48526;SDS011;34317;51.660;5.824;2022-10-30T08:39:29;34.17;;;17.95;;
48526;SDS011;34317;51.660;5.824;2022-10-30T08:42:12;29.42;;;16.60;;
48526;SDS011;34317;51.660;5.824;2022-10-30T08:44:42;26.45;;;17.15;;
48526;SDS011;34317;51.660;5.824;2022-10-30T08:47:15;28.25;;;17.48;;
48526;SDS011;34317;51.660;5.824;2022-10-30T08:49:44;28.60;;;17.33;;
48526;SDS011;34317;51.660;5.824;2022-10-30T08:52:13;24.67;;;17.50;;
48526;SDS011;34317;51.660;5.824;2022-10-30T08:54:43;22.55;;;17.08;;
48526;SDS011;34317;51.660;5.824;2022-10-30T08:57:11;27.02;;;17.98;;
48526;SDS011;34317;51.660;5.824;2022-10-30T08:59:38;28.58;;;16.00;;
48526;SDS011;34317;51.660;5.824;2022-10-30T09:02:11;29.70;;;17.25;;
48526;SDS011;34317;51.660;5.824;2022-10-30T09:04:59;25.00;;;15.57;;
48526;SDS011;34317;51.660;5.824;2022-10-30T09:07:58;30.48;;;14.60;;
48526;SDS011;34317;51.660;5.824;2022-10-30T09:10:46;22.20;;;15.00;;
48526;SDS011;34317;51.660;5.824;2022-10-30T09:13:13;23.70;;;15.32;;
48526;SDS011;34317;51.660;5.824;2022-10-30T09:15:42;26.08;;;14.45;;
48526;SDS011;34317;51.660;5.824;2022-10-30T09:18:09;22.60;;;14.80;;
48526;SDS011;34317;51.660;5.824;2022-10-30T09:20:36;25.92;;;14.27;;
48526;SDS011;34317;51.660;5.824;2022-10-30T09:23:04;25.70;;;15.20;;
48526;SDS011;34317;51.660;5.824;2022-10-30T09:25:31;23.73;;;15.10;;
48526;SDS011;34317;51.660;5.824;2022-10-30T09:28:08;23.92;;;14.55;;
48526;SDS011;34317;51.660;5.824;2022-10-30T09:30:55;24.08;;;14.40;;
48526;SDS011;34317;51.660;5.824;2022-10-30T09:33:24;24.23;;;15.25;;
48526;SDS011;34317;51.660;5.824;2022-10-30T09:36:13;20.77;;;14.20;;
48526;SDS011;34317;51.660;5.824;2022-10-30T09:38:47;21.38;;;14.80;;
48526;SDS011;34317;51.660;5.824;2022-10-30T09:44:10;20.58;;;13.00;;
48526;SDS011;34317;51.660;5.824;2022-10-30T09:46:55;21.92;;;13.05;;
48526;SDS011;34317;51.660;5.824;2022-10-30T09:49:35;24.17;;;12.23;;
48526;SDS011;34317;51.660;5.824;2022-10-30T09:52:24;19.20;;;12.27;;
48526;SDS011;34317;51.660;5.824;2022-10-30T09:55:04;19.33;;;13.02;;
48526;SDS011;34317;51.660;5.824;2022-10-30T10:00:49;21.05;;;11.80;;
48526;SDS011;34317;51.660;5.824;2022-10-30T10:03:34;21.10;;;12.77;;
48526;SDS011;34317;51.660;5.824;2022-10-30T10:06:34;20.63;;;11.18;;
48526;SDS011;34317;51.660;5.824;2022-10-30T10:09:19;20.15;;;10.77;;
48526;SDS011;34317;51.660;5.824;2022-10-30T10:12:04;19.25;;;11.10;;
48526;SDS011;34317;51.660;5.824;2022-10-30T10:14:37;17.85;;;10.85;;
48526;SDS011;34317;51.660;5.824;2022-10-30T10:17:11;19.85;;;10.48;;
48526;SDS011;34317;51.660;5.824;2022-10-30T10:19:43;14.43;;;10.20;;
48526;SDS011;34317;51.660;5.824;2022-10-30T10:22:19;20.15;;;10.55;;
48526;SDS011;34317;51.660;5.824;2022-10-30T10:24:52;21.98;;;10.80;;
48526;SDS011;34317;51.660;5.824;2022-10-30T10:29:56;16.08;;;10.75;;
48526;SDS011;34317;51.660;5.824;2022-10-30T10:32:33;21.42;;;10.60;;
48526;SDS011;34317;51.660;5.824;2022-10-30T10:35:16;19.42;;;10.80;;
48526;SDS011;34317;51.660;5.824;2022-10-30T10:46:13;17.63;;;9.50;;
48526;SDS011;34317;51.660;5.824;2022-10-30T10:51:36;17.35;;;9.77;;
48526;SDS011;34317;51.660;5.824;2022-10-30T10:54:10;20.13;;;9.75;;
48526;SDS011;34317;51.660;5.824;2022-10-30T10:56:49;17.02;;;8.85;;
48526;SDS011;34317;51.660;5.824;2022-10-30T10:59:22;16.00;;;9.13;;
48526;SDS011;34317;51.660;5.824;2022-10-30T11:04:34;17.50;;;8.98;;
48526;SDS011;34317;51.660;5.824;2022-10-30T11:07:18;20.05;;;9.57;;
48526;SDS011;34317;51.660;5.824;2022-10-30T11:09:54;18.02;;;8.88;;
48526;SDS011;34317;51.660;5.824;2022-10-30T11:12:33;14.80;;;8.88;;
48526;SDS011;34317;51.660;5.824;2022-10-30T11:15:25;20.25;;;9.25;;
48526;SDS011;34317;51.660;5.824;2022-10-30T11:17:54;16.52;;;8.95;;
48526;SDS011;34317;51.660;5.824;2022-10-30T11:20:27;18.97;;;9.67;;
48526;SDS011;34317;51.660;5.824;2022-10-30T11:23:01;18.92;;;8.98;;
48526;SDS011;34317;51.660;5.824;2022-10-30T11:25:33;15.13;;;8.95;;
48526;SDS011;34317;51.660;5.824;2022-10-30T11:28:02;18.50;;;10.13;;
48526;SDS011;34317;51.660;5.824;2022-10-30T11:30:31;18.15;;;9.48;;
48526;SDS011;34317;51.660;5.824;2022-10-30T11:32:58;16.85;;;8.63;;
48526;SDS011;34317;51.660;5.824;2022-10-30T11:35:48;14.80;;;8.88;;
48526;SDS011;34317;51.660;5.824;2022-10-30T11:38:18;21.30;;;8.68;;
48526;SDS011;34317;51.660;5.824;2022-10-30T11:40:46;15.50;;;8.88;;
48526;SDS011;34317;51.660;5.824;2022-10-30T11:43:19;15.00;;;8.48;;
48526;SDS011;34317;51.660;5.824;2022-10-30T11:45:48;13.73;;;8.20;;
48526;SDS011;34317;51.660;5.824;2022-10-30T11:48:26;16.58;;;8.40;;
48526;SDS011;34317;51.660;5.824;2022-10-30T11:50:58;15.23;;;7.97;;
48526;SDS011;34317;51.660;5.824;2022-10-30T11:53:30;14.90;;;8.45;;
48526;SDS011;34317;51.660;5.824;2022-10-30T11:56:02;13.73;;;8.50;;
48526;SDS011;34317;51.660;5.824;2022-10-30T11:58:40;15.77;;;8.48;;
48526;SDS011;34317;51.660;5.824;2022-10-30T12:01:13;17.42;;;8.90;;
48526;SDS011;34317;51.660;5.824;2022-10-30T12:09:40;16.58;;;8.13;;
48526;SDS011;34317;51.660;5.824;2022-10-30T12:12:28;14.45;;;7.47;;
48526;SDS011;34317;51.660;5.824;2022-10-30T12:17:41;14.95;;;7.43;;
48526;SDS011;34317;51.660;5.824;2022-10-30T12:20:21;17.25;;;8.15;;
48526;SDS011;34317;51.660;5.824;2022-10-30T12:22:48;14.63;;;7.45;;
48526;SDS011;34317;51.660;5.824;2022-10-30T12:27:50;12.50;;;7.55;;
48526;SDS011;34317;51.660;5.824;2022-10-30T12:30:25;18.40;;;7.65;;
48526;SDS011;34317;51.660;5.824;2022-10-30T12:32:57;16.52;;;7.95;;
48526;SDS011;34317;51.660;5.824;2022-10-30T12:35:56;14.70;;;7.35;;
48526;SDS011;34317;51.660;5.824;2022-10-30T12:38:29;18.60;;;7.90;;
48526;SDS011;34317;51.660;5.824;2022-10-30T12:43:58;13.70;;;7.57;;
48526;SDS011;34317;51.660;5.824;2022-10-30T12:46:37;21.02;;;7.78;;
48526;SDS011;34317;51.660;5.824;2022-10-30T12:49:28;14.73;;;7.63;;
48526;SDS011;34317;51.660;5.824;2022-10-30T12:52:09;18.25;;;8.52;;
48526;SDS011;34317;51.660;5.824;2022-10-30T12:54:48;12.77;;;7.45;;
48526;SDS011;34317;51.660;5.824;2022-10-30T12:57:18;17.65;;;8.30;;
48526;SDS011;34317;51.660;5.824;2022-10-30T13:00:00;18.00;;;8.93;;
48526;SDS011;34317;51.660;5.824;2022-10-30T13:02:50;16.88;;;8.25;;
48526;SDS011;34317;51.660;5.824;2022-10-30T13:05:29;16.30;;;8.48;;
48526;SDS011;34317;51.660;5.824;2022-10-30T13:07:59;16.88;;;8.60;;
48526;SDS011;34317;51.660;5.824;2022-10-30T13:10:45;19.10;;;8.38;;
48526;SDS011;34317;51.660;5.824;2022-10-30T13:13:20;19.33;;;8.23;;
48526;SDS011;34317;51.660;5.824;2022-10-30T13:15:51;17.77;;;8.23;;
48526;SDS011;34317;51.660;5.824;2022-10-30T13:18:22;15.05;;;8.63;;
48526;SDS011;34317;51.660;5.824;2022-10-30T13:23:29;17.30;;;9.30;;
48526;SDS011;34317;51.660;5.824;2022-10-30T13:26:37;15.25;;;8.40;;
48526;SDS011;34317;51.660;5.824;2022-10-30T13:29:21;21.52;;;8.90;;
48526;SDS011;34317;51.660;5.824;2022-10-30T13:32:22;16.45;;;8.63;;
48526;SDS011;34317;51.660;5.824;2022-10-30T13:34:57;15.15;;;8.55;;
48526;SDS011;34317;51.660;5.824;2022-10-30T13:40:12;13.93;;;8.25;;
48526;SDS011;34317;51.660;5.824;2022-10-30T13:43:06;20.23;;;8.93;;
48526;SDS011;34317;51.660;5.824;2022-10-30T13:46:15;18.02;;;9.23;;
48526;SDS011;34317;51.660;5.824;2022-10-30T13:52:11;17.55;;;8.35;;
48526;SDS011;34317;51.660;5.824;2022-10-30T13:57:34;18.58;;;8.40;;
48526;SDS011;34317;51.660;5.824;2022-10-30T14:00:19;16.67;;;7.82;;
48526;SDS011;34317;51.660;5.824;2022-10-30T14:05:37;13.50;;;7.70;;
48526;SDS011;34317;51.660;5.824;2022-10-30T14:08:14;13.35;;;7.10;;
48526;SDS011;34317;51.660;5.824;2022-10-30T14:10:58;15.57;;;7.22;;
48526;SDS011;34317;51.660;5.824;2022-10-30T14:13:27;13.82;;;6.60;;
48526;SDS011;34317;51.660;5.824;2022-10-30T14:17:02;16.77;;;6.88;;
48526;SDS011;34317;51.660;5.824;2022-10-30T14:19:03;13.70;;;6.57;;
48526;SDS011;34317;51.660;5.824;2022-10-30T14:24:26;13.20;;;6.03;;
48526;SDS011;34317;51.660;5.824;2022-10-30T14:32:27;12.88;;;6.05;;
48526;SDS011;34317;51.660;5.824;2022-10-30T14:39:49;14.32;;;6.65;;
48526;SDS011;34317;51.660;5.824;2022-10-30T14:47:56;12.23;;;6.18;;
48526;SDS011;34317;51.660;5.824;2022-10-30T14:59:07;11.93;;;5.32;;
48526;SDS011;34317;51.660;5.824;2022-10-30T15:04:18;14.07;;;6.15;;
48526;SDS011;34317;51.660;5.824;2022-10-30T15:06:53;13.02;;;6.10;;
48526;SDS011;34317;51.660;5.824;2022-10-30T15:09:42;16.00;;;6.25;;
48526;SDS011;34317;51.660;5.824;2022-10-30T15:12:21;13.98;;;6.00;;
48526;SDS011;34317;51.660;5.824;2022-10-30T15:14:58;15.15;;;5.93;;
48526;SDS011;34317;51.660;5.824;2022-10-30T15:17:31;14.00;;;5.00;;
48526;SDS011;34317;51.660;5.824;2022-10-30T15:20:04;9.45;;;4.80;;
48526;SDS011;34317;51.660;5.824;2022-10-30T15:22:59;14.32;;;4.82;;
48526;SDS011;34317;51.660;5.824;2022-10-30T15:25:46;8.23;;;4.38;;
48526;SDS011;34317;51.660;5.824;2022-10-30T15:28:15;9.85;;;3.95;;
48526;SDS011;34317;51.660;5.824;2022-10-30T15:31:01;13.48;;;5.20;;
48526;SDS011;34317;51.660;5.824;2022-10-30T15:33:29;11.95;;;4.20;;
48526;SDS011;34317;51.660;5.824;2022-10-30T15:35:58;15.65;;;4.78;;
48526;SDS011;34317;51.660;5.824;2022-10-30T15:38:25;15.45;;;4.57;;
48526;SDS011;34317;51.660;5.824;2022-10-30T15:40:57;13.38;;;4.68;;
48526;SDS011;34317;51.660;5.824;2022-10-30T15:43:28;12.93;;;4.75;;
48526;SDS011;34317;51.660;5.824;2022-10-30T15:45:58;10.00;;;4.20;;
48526;SDS011;34317;51.660;5.824;2022-10-30T15:50:59;11.13;;;4.70;;
48526;SDS011;34317;51.660;5.824;2022-10-30T15:53:45;11.05;;;4.63;;
48526;SDS011;34317;51.660;5.824;2022-10-30T15:56:18;13.27;;;4.40;;
48526;SDS011;34317;51.660;5.824;2022-10-30T15:58:50;14.50;;;5.13;;
48526;SDS011;34317;51.660;5.824;2022-10-30T16:01:24;12.05;;;4.50;;
48526;SDS011;34317;51.660;5.824;2022-10-30T16:03:53;15.00;;;4.97;;
48526;SDS011;34317;51.660;5.824;2022-10-30T16:06:22;12.45;;;4.60;;
48526;SDS011;34317;51.660;5.824;2022-10-30T16:08:51;15.57;;;5.22;;
48526;SDS011;34317;51.660;5.824;2022-10-30T16:11:18;11.60;;;4.57;;
48526;SDS011;34317;51.660;5.824;2022-10-30T16:13:48;9.20;;;5.22;;
48526;SDS011;34317;51.660;5.824;2022-10-30T16:16:20;11.15;;;5.20;;
48526;SDS011;34317;51.660;5.824;2022-10-30T16:18:50;16.77;;;5.78;;
48526;SDS011;34317;51.660;5.824;2022-10-30T16:21:19;14.07;;;5.68;;
48526;SDS011;34317;51.660;5.824;2022-10-30T16:23:52;16.33;;;5.80;;
48526;SDS011;34317;51.660;5.824;2022-10-30T16:28:55;13.55;;;5.10;;
48526;SDS011;34317;51.660;5.824;2022-10-30T16:31:24;14.52;;;5.60;;
48526;SDS011;34317;51.660;5.824;2022-10-30T16:33:58;12.10;;;5.13;;
48526;SDS011;34317;51.660;5.824;2022-10-30T16:36:27;19.00;;;5.88;;
48526;SDS011;34317;51.660;5.824;2022-10-30T16:38:55;14.88;;;5.70;;
48526;SDS011;34317;51.660;5.824;2022-10-30T16:41:23;16.35;;;6.00;;
48526;SDS011;34317;51.660;5.824;2022-10-30T16:49:09;14.20;;;6.07;;
48526;SDS011;34317;51.660;5.824;2022-10-30T16:51:41;14.13;;;6.45;;
48526;SDS011;34317;51.660;5.824;2022-10-30T16:54:19;11.88;;;5.93;;
48526;SDS011;34317;51.660;5.824;2022-10-30T16:56:50;15.60;;;6.22;;